Terminal Aerodrome Forecast
Issued by NWS

Home | Current Version | Previous Version | Text Only | Print | Product List | Glossary On
Versions: 1 2 3 4 5 6 7 8 9 10 11 12 13
000
FTUS46 KSEW 200800 AAA
TAFBFI
TAF AMD
KBFI 200819Z 2008/2106 VRB04KT P6SM SCT060
     FM201100 17004KT P6SM SCT020 OVC035
      TEMPO 2012/2016 OVC020
     FM201900 20006KT P6SM BKN040
     FM202200 20006KT P6SM SCT060=

USA.gov is the U.S. government's official web portal to all federal, state and local government web resources and services.